Time;durP1;ratioP1;P1;durP2;ratioP2;P2;SDS_P1;SDS_P2;PMS_P1;PMS_P2;Temp;Humidity;BMP_temperature;BMP_pressure;BME280_temperature;BME280_humidity;BME280_pressure;Samples;Min_cycle;Max_cycle;Signal;HPM_P1;HPM_P2
2023/11/22 00:01:48;;;;;;;;;;;;;;;7.21;nan;102657.66;5038452;28;19917;-84
2023/11/22 00:04:13;;;;;;;;;;;;;;;7.16;nan;102664.50;5036494;28;19929;-85
2023/11/22 00:06:38;;;;;;;;;;;;;;;7.09;nan;102668.91;5035915;28;19967;-84
2023/11/22 00:09:04;;;;;;;;;;;;;;;7.00;nan;102662.78;5035078;28;19925;-84
2023/11/22 00:11:29;;;;;;;;;;;;;;;6.97;nan;102666.63;5036661;28;20320;-84
2023/11/22 00:13:55;;;;;;;;;;;;;;;6.94;nan;102668.84;5036302;28;19922;-84
2023/11/22 00:16:21;;;;;;;;;;;;;;;6.92;nan;102662.84;5033504;28;19925;-84
2023/11/22 00:18:46;;;;;;;;;;;;;;;6.91;nan;102674.53;5033351;28;19921;-84
2023/11/22 00:21:12;;;;;;;;;;;;;;;6.86;nan;102677.72;5034736;28;20007;-83
2023/11/22 00:23:37;;;;;;;;;;;;;;;6.81;nan;102674.72;5037466;28;19917;-84
2023/11/22 00:26:03;;;;;;;;;;;;;;;6.73;nan;102680.13;5035566;28;20355;-84
2023/11/22 00:28:29;;;;;;;;;;;;;;;6.64;nan;102679.34;5039580;28;19921;-83
2023/11/22 00:30:54;;;;;;;;;;;;;;;6.56;nan;102686.53;5036554;28;20373;-83
2023/11/22 00:33:19;;;;;;;;;;;;;;;6.50;nan;102682.75;5038194;28;19924;-83
2023/11/22 00:35:45;;;;;;;;;;;;;;;6.49;nan;102688.25;5037612;28;20011;-82
2023/11/22 00:38:10;;;;;;;;;;;;;;;6.51;nan;102702.22;5037017;28;19921;-83
2023/11/22 00:40:35;;;;;;;;;;;;;;;6.52;nan;102690.56;5035781;28;19925;-83
2023/11/22 00:43:01;;;;;;;;;;;;;;;6.56;nan;102695.34;5038458;28;19925;-83
2023/11/22 00:45:26;;;;;;;;;;;;;;;6.53;nan;102705.53;5038786;28;19929;-83
2023/11/22 00:47:52;;;;;;;;;;;;;;;6.48;nan;102715.88;5037991;28;19967;-83
2023/11/22 00:50:19;;;;;;;;;;;;;;;6.46;nan;102728.50;5035969;28;19917;-84
2023/11/22 00:52:45;;;;;;;;;;;;;;;6.46;nan;102731.19;5036446;28;19924;-83
2023/11/22 00:55:11;;;;;;;;;;;;;;;6.48;nan;102727.38;5037949;28;20000;-83
2023/11/22 00:57:37;;;;;;;;;;;;;;;6.51;nan;102726.19;5037830;28;19925;-83
2023/11/22 01:00:04;;;;;;;;;;;;;;;6.53;nan;102725.00;5039310;28;19979;-83
2023/11/22 01:02:29;;;;;;;;;;;;;;;6.53;nan;102730.34;5036651;28;19939;-83
2023/11/22 01:04:55;;;;;;;;;;;;;;;6.54;nan;102739.16;5034790;28;20655;-83
2023/11/22 01:07:20;;;;;;;;;;;;;;;6.51;nan;102744.81;5039019;28;19976;-83
2023/11/22 01:09:45;;;;;;;;;;;;;;;6.46;nan;102733.84;5036718;28;19924;-83
2023/11/22 01:12:12;;;;;;;;;;;;;;;6.43;nan;102728.88;5039138;28;19924;-83
2023/11/22 01:14:37;;;;;;;;;;;;;;;6.41;nan;102736.19;5040738;28;19916;-83
2023/11/22 01:17:03;;;;;;;;;;;;;;;6.41;nan;102736.19;5037412;28;20963;-82
2023/11/22 01:19:28;;;;;;;;;;;;;;;6.38;nan;102733.88;5037129;28;20336;-82
2023/11/22 01:21:54;;;;;;;;;;;;;;;6.39;nan;102738.19;5033261;28;19917;-82
2023/11/22 01:24:19;;;;;;;;;;;;;;;6.33;nan;102740.56;5038141;28;19925;-82
2023/11/22 01:26:45;;;;;;;;;;;;;;;6.24;nan;102764.69;5035227;28;19928;-83
2023/11/22 01:29:11;;;;;;;;;;;;;;;6.16;nan;102757.56;5039731;28;20601;-83
2023/11/22 01:31:37;;;;;;;;;;;;;;;6.11;nan;102765.25;5040892;28;20464;-83
2023/11/22 01:34:04;;;;;;;;;;;;;;;6.10;nan;102763.56;5038550;28;20027;-82
2023/11/22 01:36:29;;;;;;;;;;;;;;;6.12;nan;102766.06;5037894;28;19923;-82
2023/11/22 01:38:55;;;;;;;;;;;;;;;6.14;nan;102770.22;5039532;28;21203;-83
2023/11/22 01:41:21;;;;;;;;;;;;;;;6.16;nan;102757.56;5040977;28;20167;-83
2023/11/22 01:43:46;;;;;;;;;;;;;;;6.17;nan;102758.41;5041307;28;20357;-83
2023/11/22 01:46:21;;;;;;;;;;;;;;;6.18;nan;102744.94;5040489;28;19928;-82
2023/11/22 01:48:46;;;;;;;;;;;;;;;6.18;nan;102744.94;5036866;28;19971;-82
2023/11/22 01:51:11;;;;;;;;;;;;;;;6.17;nan;102748.59;5039947;28;20321;-83
2023/11/22 01:53:37;;;;;;;;;;;;;;;6.14;nan;102754.25;5037809;28;20340;-82
2023/11/22 01:56:03;;;;;;;;;;;;;;;6.12;nan;102752.78;5040198;28;20392;-82
2023/11/22 01:58:28;;;;;;;;;;;;;;;6.07;nan;102756.75;5042846;28;19924;-82
2023/11/22 02:00:53;;;;;;;;;;;;;;;6.01;nan;102754.78;5036539;28;19931;-83
2023/11/22 02:03:19;;;;;;;;;;;;;;;5.98;nan;102759.59;5040204;28;19948;-82
2023/11/22 02:05:45;;;;;;;;;;;;;;;5.94;nan;102758.28;5037691;28;19932;-82
2023/11/22 02:08:10;;;;;;;;;;;;;;;5.89;nan;102761.41;5040587;28;19921;-82
2023/11/22 02:10:39;;;;;;;;;;;;;;;5.83;nan;102758.59;5036996;28;19932;-82
2023/11/22 02:13:07;;;;;;;;;;;;;;;5.73;nan;102756.91;5035330;28;19921;-82
2023/11/22 02:15:32;;;;;;;;;;;;;;;5.68;nan;102772.53;5035351;28;19916;-82
2023/11/22 02:17:58;;;;;;;;;;;;;;;5.64;nan;102779.19;5038279;28;19917;-82
2023/11/22 02:20:24;;;;;;;;;;;;;;;5.63;nan;102782.03;5033897;28;19924;-82
2023/11/22 02:22:50;;;;;;;;;;;;;;;5.60;nan;102780.53;5035442;28;19921;-82
2023/11/22 02:25:15;;;;;;;;;;;;;;;5.60;nan;102772.56;5036081;28;19917;-82
2023/11/22 02:27:41;;;;;;;;;;;;;;;5.58;nan;102763.09;5041773;28;19991;-82
2023/11/22 02:30:08;;;;;;;;;;;;;;;5.55;nan;102760.75;5039453;28;19921;-82
2023/11/22 02:32:34;;;;;;;;;;;;;;;5.47;nan;102750.94;5037664;28;19963;-82
2023/11/22 02:35:00;;;;;;;;;;;;;;;5.45;nan;102758.25;5040462;28;19924;-82
2023/11/22 02:37:25;;;;;;;;;;;;;;;5.46;nan;102754.59;5039354;28;19925;-82
2023/11/22 02:39:57;;;;;;;;;;;;;;;5.46;nan;102763.41;5040192;28;19928;-82
2023/11/22 02:42:23;;;;;;;;;;;;;;;5.47;nan;102769.56;5035868;28;19921;-82
2023/11/22 02:44:48;;;;;;;;;;;;;;;5.45;nan;102763.56;5036670;28;19966;-82
2023/11/22 02:47:13;;;;;;;;;;;;;;;5.44;nan;102769.88;5039505;28;20409;-82
2023/11/22 02:49:40;;;;;;;;;;;;;;;5.39;nan;102770.38;5041675;28;19917;-82
2023/11/22 02:52:05;;;;;;;;;;;;;;;5.33;nan;102780.81;5036313;28;20011;-82
2023/11/22 02:54:31;;;;;;;;;;;;;;;5.22;nan;102791.78;5038846;28;19917;-82
2023/11/22 02:56:56;;;;;;;;;;;;;;;5.12;nan;102799.88;5037486;28;19925;-82
2023/11/22 02:59:22;;;;;;;;;;;;;;;5.08;nan;102799.38;5036746;28;19921;-82
2023/11/22 03:01:47;;;;;;;;;;;;;;;5.06;nan;102806.69;5039447;28;19951;-83
2023/11/22 03:04:13;;;;;;;;;;;;;;;5.07;nan;102813.66;5038076;28;19925;-82
2023/11/22 03:06:39;;;;;;;;;;;;;;;5.05;nan;102826.28;5036882;28;19983;-83
2023/11/22 03:09:04;;;;;;;;;;;;;;;5.07;nan;102829.59;5037023;28;20316;-82
2023/11/22 03:11:29;;;;;;;;;;;;;;;5.11;nan;102835.41;5036832;28;20332;-82
2023/11/22 03:13:55;;;;;;;;;;;;;;;5.12;nan;102842.41;5036264;28;19916;-82
2023/11/22 03:16:20;;;;;;;;;;;;;;;5.09;nan;102845.38;5039151;28;20015;-82
2023/11/22 03:18:46;;;;;;;;;;;;;;;5.08;nan;102851.69;5037288;28;19939;-83
2023/11/22 03:21:11;;;;;;;;;;;;;;;5.07;nan;102861.50;5036161;28;21612;-82
2023/11/22 03:23:37;;;;;;;;;;;;;;;5.06;nan;102862.47;5036848;28;19944;-82
2023/11/22 03:26:03;;;;;;;;;;;;;;;5.04;nan;102861.81;5035893;28;19928;-83
2023/11/22 03:28:30;;;;;;;;;;;;;;;5.00;nan;102855.13;5034728;28;19982;-83
2023/11/22 03:30:55;;;;;;;;;;;;;;;5.00;nan;102862.28;5036787;28;19920;-83
2023/11/22 03:33:20;;;;;;;;;;;;;;;4.99;nan;102858.78;5037204;28;19991;-83
2023/11/22 03:35:46;;;;;;;;;;;;;;;4.98;nan;102862.44;5041880;28;20288;-83
2023/11/22 03:38:11;;;;;;;;;;;;;;;4.97;nan;102852.81;5039380;28;19981;-83
2023/11/22 03:40:36;;;;;;;;;;;;;;;4.95;nan;102851.31;5042014;28;19917;-85
2023/11/22 03:43:02;;;;;;;;;;;;;;;4.92;nan;102857.75;5038826;28;19936;-82
2023/11/22 03:45:27;;;;;;;;;;;;;;;4.92;nan;102864.91;5041453;28;20604;-83
2023/11/22 03:47:53;;;;;;;;;;;;;;;4.89;nan;102866.06;5040233;28;21023;-83
2023/11/22 03:50:18;;;;;;;;;;;;;;;4.87;nan;102873.34;5041016;28;19921;-83
2023/11/22 03:52:43;;;;;;;;;;;;;;;4.83;nan;102879.94;5039155;28;19917;-83
2023/11/22 03:55:09;;;;;;;;;;;;;;;4.79;nan;102879.44;5036278;28;20022;-83
2023/11/22 03:57:35;;;;;;;;;;;;;;;4.75;nan;102875.44;5042962;28;20310;-82
2023/11/22 04:00:00;;;;;;;;;;;;;;;4.72;nan;102878.41;5043229;28;19913;-83
2023/11/22 04:02:27;;;;;;;;;;;;;;;4.70;nan;102884.88;5043915;28;19923;-83
2023/11/22 04:04:52;;;;;;;;;;;;;;;4.66;nan;102894.13;5038556;28;19927;-83
2023/11/22 04:07:18;;;;;;;;;;;;;;;4.59;nan;102882.47;5038227;28;19921;-82
2023/11/22 04:09:44;;;;;;;;;;;;;;;4.54;nan;102881.13;5039318;28;19925;-82
2023/11/22 04:12:09;;;;;;;;;;;;;;;4.54;nan;102880.28;5040119;28;19925;-83
2023/11/22 04:14:34;;;;;;;;;;;;;;;4.53;nan;102884.78;5040497;28;19917;-83
2023/11/22 04:17:00;;;;;;;;;;;;;;;4.50;nan;102884.25;5037301;28;19917;-83
2023/11/22 04:19:25;;;;;;;;;;;;;;;4.46;nan;102889.03;5039676;28;19917;-83
2023/11/22 04:21:50;;;;;;;;;;;;;;;4.44;nan;102898.13;5042612;28;20455;-83
2023/11/22 04:24:17;;;;;;;;;;;;;;;4.41;nan;102906.41;5036220;28;20332;-83
2023/11/22 04:26:42;;;;;;;;;;;;;;;4.40;nan;102904.75;5042408;28;20598;-83
2023/11/22 04:29:08;;;;;;;;;;;;;;;4.36;nan;102906.88;5037622;28;19932;-83
2023/11/22 04:31:33;;;;;;;;;;;;;;;4.31;nan;102901.22;5039944;28;20034;-83
2023/11/22 04:34:00;;;;;;;;;;;;;;;4.29;nan;102908.47;5037904;28;20296;-83
2023/11/22 04:36:25;;;;;;;;;;;;;;;4.28;nan;102906.81;5040809;28;19952;-83
2023/11/22 04:38:50;;;;;;;;;;;;;;;4.25;nan;102904.47;5037936;28;19944;-83
2023/11/22 04:41:18;;;;;;;;;;;;;;;4.24;nan;102905.44;5036403;28;20511;-83
2023/11/22 04:43:44;;;;;;;;;;;;;;;4.21;nan;102905.75;5039497;28;20003;-83
2023/11/22 04:46:10;;;;;;;;;;;;;;;4.19;nan;102899.78;5040149;28;19929;-83
2023/11/22 04:48:36;;;;;;;;;;;;;;;4.18;nan;102901.59;5036403;28;19932;-82
2023/11/22 04:51:02;;;;;;;;;;;;;;;4.18;nan;102900.75;5036381;28;20331;-83
2023/11/22 04:53:27;;;;;;;;;;;;;;;4.17;nan;102904.41;5039482;28;19917;-83
2023/11/22 04:55:52;;;;;;;;;;;;;;;4.15;nan;102896.59;5038738;28;19975;-82
2023/11/22 04:58:18;;;;;;;;;;;;;;;4.12;nan;102906.66;5040461;28;20703;-83
2023/11/22 05:00:43;;;;;;;;;;;;;;;4.10;nan;102914.78;5035949;28;20000;-83
2023/11/22 05:03:08;;;;;;;;;;;;;;;4.06;nan;102921.38;5037312;28;19925;-83
2023/11/22 05:05:34;;;;;;;;;;;;;;;4.07;nan;102930.16;5038558;28;19921;-83
2023/11/22 05:07:59;;;;;;;;;;;;;;;4.06;nan;102937.28;5038241;28;19921;-82
2023/11/22 05:10:24;;;;;;;;;;;;;;;4.05;nan;102951.53;5039829;28;19920;-83
2023/11/22 05:12:49;;;;;;;;;;;;;;;4.04;nan;102962.31;5040269;28;19999;-82
2023/11/22 05:15:15;;;;;;;;;;;;;;;4.01;nan;102962.63;5040703;28;19937;-82
2023/11/22 05:17:40;;;;;;;;;;;;;;;3.97;nan;102961.25;5038782;28;19924;-83
2023/11/22 05:20:09;;;;;;;;;;;;;;;3.97;nan;102974.50;5041920;28;19956;-83
2023/11/22 05:22:34;;;;;;;;;;;;;;;4.00;nan;102980.34;5038465;28;19992;-82
2023/11/22 05:24:59;;;;;;;;;;;;;;;3.99;nan;102985.81;5037219;28;19921;-83
2023/11/22 05:27:25;;;;;;;;;;;;;;;3.99;nan;102991.13;5040161;28;19968;-82
2023/11/22 05:29:50;;;;;;;;;;;;;;;3.97;nan;102993.91;5038871;28;20000;-82
2023/11/22 05:32:17;;;;;;;;;;;;;;;3.98;nan;102990.28;5039510;28;19921;-83
2023/11/22 05:34:42;;;;;;;;;;;;;;;4.03;nan;102992.47;5041318;28;19916;-82
2023/11/22 05:37:08;;;;;;;;;;;;;;;4.03;nan;102987.16;5040342;28;20572;-82
2023/11/22 05:39:34;;;;;;;;;;;;;;;4.00;nan;102983.00;5038146;28;19925;-83
2023/11/22 05:42:00;;;;;;;;;;;;;;;3.97;nan;102985.97;5034341;28;19917;-82
2023/11/22 05:44:25;;;;;;;;;;;;;;;3.97;nan;102987.78;5039467;28;19917;-83
2023/11/22 05:46:51;;;;;;;;;;;;;;;3.94;nan;102989.72;5039318;28;19929;-83
2023/11/22 05:49:16;;;;;;;;;;;;;;;3.92;nan;103001.47;5041140;28;19967;-83
2023/11/22 05:51:41;;;;;;;;;;;;;;;3.88;nan;102995.63;5032611;28;20369;-83
2023/11/22 05:54:07;;;;;;;;;;;;;;;3.88;nan;103016.00;5037637;28;19921;-82
2023/11/22 05:56:32;;;;;;;;;;;;;;;3.85;nan;103016.31;5035979;28;19952;-82
2023/11/22 05:58:57;;;;;;;;;;;;;;;3.81;nan;103017.59;5040442;28;19975;-82
2023/11/22 06:01:23;;;;;;;;;;;;;;;3.78;nan;103018.75;5040205;28;19963;-82
2023/11/22 06:03:48;;;;;;;;;;;;;;;3.76;nan;103022.50;5034896;28;20317;-82
2023/11/22 06:06:14;;;;;;;;;;;;;;;3.76;nan;103017.19;5043141;28;20015;-83
2023/11/22 06:08:39;;;;;;;;;;;;;;;3.75;nan;103020.81;5040905;28;19916;-82
2023/11/22 06:11:04;;;;;;;;;;;;;;;3.74;nan;103014.69;5036643;28;19917;-82
2023/11/22 06:13:30;;;;;;;;;;;;;;;3.71;nan;103009.69;5041138;28;20296;-82
2023/11/22 06:15:55;;;;;;;;;;;;;;;3.69;nan;103016.94;5041742;28;19917;-81
2023/11/22 06:18:20;;;;;;;;;;;;;;;3.66;nan;103006.66;5038907;28;19927;-82
2023/11/22 06:20:49;;;;;;;;;;;;;;;3.63;nan;103001.66;5040905;28;19940;-83
2023/11/22 06:23:14;;;;;;;;;;;;;;;3.60;nan;103009.91;5039906;28;19999;-83
2023/11/22 06:25:43;;;;;;;;;;;;;;;3.59;nan;103002.91;5039258;28;19949;-82
2023/11/22 06:28:08;;;;;;;;;;;;;;;3.56;nan;103011.16;5039058;28;19939;-83
2023/11/22 06:30:34;;;;;;;;;;;;;;;3.50;nan;103017.03;5037843;28;19921;-82
2023/11/22 06:33:00;;;;;;;;;;;;;;;3.42;nan;103009.00;5039340;28;20004;-82
2023/11/22 06:35:25;;;;;;;;;;;;;;;3.39;nan;103015.41;5041788;28;19936;-82
2023/11/22 06:37:50;;;;;;;;;;;;;;;3.39;nan;103022.50;5040566;28;19928;-82
2023/11/22 06:40:16;;;;;;;;;;;;;;;3.37;nan;103024.47;5039166;28;20270;-82
2023/11/22 06:42:42;;;;;;;;;;;;;;;3.37;nan;103035.91;5041769;28;19920;-82
2023/11/22 06:45:12;;;;;;;;;;;;;;;3.39;nan;103044.53;5041339;28;19960;-82
2023/11/22 06:47:38;;;;;;;;;;;;;;;3.41;nan;103044.41;5043131;28;19920;-82
2023/11/22 06:50:08;;;;;;;;;;;;;;;3.42;nan;103035.50;5037574;28;20415;-82
2023/11/22 06:52:34;;;;;;;;;;;;;;;3.41;nan;103039.97;5040004;28;19917;-83
2023/11/22 06:54:59;;;;;;;;;;;;;;;3.42;nan;103041.63;5040818;28;19921;-83
2023/11/22 06:57:28;;;;;;;;;;;;;;;3.40;nan;103048.88;5041115;28;19944;-82
2023/11/22 06:59:54;;;;;;;;;;;;;;;3.34;nan;103049.47;5041536;28;19916;-82
2023/11/22 07:02:19;;;;;;;;;;;;;;;3.27;nan;103054.50;5040248;28;19920;-82
2023/11/22 07:04:44;;;;;;;;;;;;;;;3.25;nan;103045.88;5040778;28;19917;-83
2023/11/22 07:07:10;;;;;;;;;;;;;;;3.26;nan;103052.00;5040605;28;19925;-83
2023/11/22 07:09:36;;;;;;;;;;;;;;;3.30;nan;103061.31;5042107;28;20008;-83
2023/11/22 07:12:02;;;;;;;;;;;;;;;3.32;nan;103054.06;5040583;28;20015;-82
2023/11/22 07:14:29;;;;;;;;;;;;;;;3.35;nan;103064.38;5039300;28;19932;-83
2023/11/22 07:16:55;;;;;;;;;;;;;;;3.36;nan;103066.03;5040848;28;19924;-83
2023/11/22 07:19:20;;;;;;;;;;;;;;;3.36;nan;103067.84;5037614;28;19918;-82
2023/11/22 07:21:48;;;;;;;;;;;;;;;3.34;nan;103074.13;5042598;28;20432;-82
2023/11/22 07:24:15;;;;;;;;;;;;;;;3.34;nan;103068.84;5039614;28;20437;-82
2023/11/22 07:26:42;;;;;;;;;;;;;;;3.38;nan;103072.03;5042336;28;19924;-82
2023/11/22 07:29:07;;;;;;;;;;;;;;;3.42;nan;103077.91;5036696;28;19925;-82
2023/11/22 07:31:32;;;;;;;;;;;;;;;3.47;nan;103076.47;5040313;28;19921;-82
2023/11/22 07:33:58;;;;;;;;;;;;;;;3.53;nan;103069.75;5040303;28;19917;-83
2023/11/22 07:36:24;;;;;;;;;;;;;;;3.56;nan;103067.66;5040952;28;19921;-83
2023/11/22 07:38:49;;;;;;;;;;;;;;;3.61;nan;103065.41;5041413;28;19917;-83
2023/11/22 07:41:15;;;;;;;;;;;;;;;3.67;nan;103060.50;5040134;28;19917;-83
2023/11/22 07:43:40;;;;;;;;;;;;;;;3.72;nan;103056.44;5036655;28;20016;-82
2023/11/22 07:46:12;;;;;;;;;;;;;;;3.80;nan;103067.16;5040364;28;19928;-83
2023/11/22 07:48:37;;;;;;;;;;;;;;;3.86;nan;103071.03;5043761;28;19928;-83
2023/11/22 07:51:02;;;;;;;;;;;;;;;3.92;nan;103076.56;5041881;28;19920;-83
2023/11/22 07:53:29;;;;;;;;;;;;;;;3.99;nan;103070.69;5038692;28;20336;-83
2023/11/22 07:55:54;;;;;;;;;;;;;;;4.06;nan;103061.16;5044148;28;19916;-83
2023/11/22 07:58:20;;;;;;;;;;;;;;;4.15;nan;103055.78;5039165;28;20298;-83
2023/11/22 08:00:45;;;;;;;;;;;;;;;4.23;nan;103058.53;5042497;28;20446;-84
2023/11/22 08:03:10;;;;;;;;;;;;;;;4.33;nan;103069.09;5037284;28;20448;-84
2023/11/22 08:05:36;;;;;;;;;;;;;;;4.40;nan;103078.09;5042171;28;19925;-83
2023/11/22 08:08:07;;;;;;;;;;;;;;;4.51;nan;103082.38;5042734;28;20440;-83
2023/11/22 08:10:34;;;;;;;;;;;;;;;4.60;nan;103089.41;5040010;28;20682;-83
2023/11/22 08:13:00;;;;;;;;;;;;;;;4.68;nan;103091.34;5041427;28;19920;-83
2023/11/22 08:15:25;;;;;;;;;;;;;;;4.73;nan;103079.25;5038496;28;19971;-83
2023/11/22 08:17:50;;;;;;;;;;;;;;;4.80;nan;103084.78;5033557;28;20486;-83
2023/11/22 08:20:17;;;;;;;;;;;;;;;4.86;nan;103097.47;5037745;28;20459;-82
2023/11/22 08:22:45;;;;;;;;;;;;;;;4.94;nan;103100.19;5038822;28;20047;-83
2023/11/22 08:25:12;;;;;;;;;;;;;;;5.04;nan;103105.44;5035716;28;19921;-82
2023/11/22 08:27:38;;;;;;;;;;;;;;;5.15;nan;103113.97;5040131;28;20074;-83
2023/11/22 08:30:04;;;;;;;;;;;;;;;5.28;nan;103102.09;5039286;28;20023;-83
2023/11/22 08:32:33;;;;;;;;;;;;;;;5.40;nan;103100.88;5038691;28;19928;-83
2023/11/22 08:34:58;;;;;;;;;;;;;;;5.48;nan;103103.56;5041444;28;19917;-83
2023/11/22 08:37:23;;;;;;;;;;;;;;;5.57;nan;103107.97;5034904;28;20846;-82
2023/11/22 08:39:49;;;;;;;;;;;;;;;5.65;nan;103123.13;5039157;28;19920;-83
2023/11/22 08:42:14;;;;;;;;;;;;;;;5.69;nan;103117.31;5041102;28;20000;-83
2023/11/22 08:44:39;;;;;;;;;;;;;;;5.79;nan;103117.22;5040282;28;20012;-83
2023/11/22 08:47:05;;;;;;;;;;;;;;;5.87;nan;103119.06;5039002;28;20018;-83
2023/11/22 08:49:30;;;;;;;;;;;;;;;5.92;nan;103111.47;5036372;28;20002;-83
2023/11/22 08:51:56;;;;;;;;;;;;;;;5.97;nan;103098.53;5037616;28;19920;-83
2023/11/22 08:54:21;;;;;;;;;;;;;;;6.09;nan;103086.59;5038390;28;19971;-83
2023/11/22 08:56:47;;;;;;;;;;;;;;;6.17;nan;103102.59;5046334;28;20328;-82
2023/11/22 08:59:12;;;;;;;;;;;;;;;6.28;nan;103099.66;5037860;28;20498;-83
2023/11/22 09:01:38;;;;;;;;;;;;;;;6.39;nan;103087.84;5036108;28;20505;-82
2023/11/22 09:04:03;;;;;;;;;;;;;;;6.52;nan;103092.72;5034419;28;19966;-83
2023/11/22 09:06:29;;;;;;;;;;;;;;;6.60;nan;103096.19;5037186;28;19966;-83
2023/11/22 09:08:54;;;;;;;;;;;;;;;6.69;nan;103099.72;5036183;28;19920;-83
2023/11/22 09:11:22;;;;;;;;;;;;;;;6.77;nan;103106.88;5037487;28;20292;-83
2023/11/22 09:13:47;;;;;;;;;;;;;;;6.87;nan;103092.41;5038734;28;19921;-83
2023/11/22 09:16:13;;;;;;;;;;;;;;;6.95;nan;103091.56;5035596;28;19932;-83
2023/11/22 09:18:38;;;;;;;;;;;;;;;7.03;nan;103085.41;5038891;28;20362;-83
2023/11/22 09:21:04;;;;;;;;;;;;;;;7.07;nan;103079.56;5040834;28;19916;-83
2023/11/22 09:23:30;;;;;;;;;;;;;;;7.13;nan;103078.91;5038093;28;19924;-83
2023/11/22 09:25:55;;;;;;;;;;;;;;;7.21;nan;103064.75;5037642;28;20516;-83
2023/11/22 09:28:21;;;;;;;;;;;;;;;7.28;nan;103049.72;5038576;28;19928;-83
2023/11/22 09:30:48;;;;;;;;;;;;;;;7.36;nan;103055.03;5036174;28;19928;-83
2023/11/22 09:33:14;;;;;;;;;;;;;;;7.38;nan;103050.38;5037251;28;19944;-83
2023/11/22 09:35:40;;;;;;;;;;;;;;;7.42;nan;103042.84;5041521;28;19921;-83
2023/11/22 09:38:09;;;;;;;;;;;;;;;7.48;nan;103042.16;5039438;28;19929;-83
2023/11/22 09:40:36;;;;;;;;;;;;;;;7.48;nan;103043.00;5039820;28;20385;-82
2023/11/22 09:43:02;;;;;;;;;;;;;;;7.48;nan;103044.81;5035576;28;20471;-83
2023/11/22 09:45:29;;;;;;;;;;;;;;;7.54;nan;103049.47;5039099;28;19921;-83
2023/11/22 09:47:55;;;;;;;;;;;;;;;7.65;nan;103041.09;5040451;28;19928;-83
2023/11/22 09:50:26;;;;;;;;;;;;;;;7.76;nan;103050.56;5039240;28;19921;-83
2023/11/22 09:52:54;;;;;;;;;;;;;;;7.89;nan;103062.34;5041066;28;19921;-83
2023/11/22 09:55:24;;;;;;;;;;;;;;;8.03;nan;103060.78;5042484;28;19972;-83
2023/11/22 09:57:50;;;;;;;;;;;;;;;8.21;nan;103057.84;5041682;28;20294;-83
2023/11/22 10:00:18;;;;;;;;;;;;;;;8.36;nan;103064.13;5038203;28;19928;-83
2023/11/22 10:02:44;;;;;;;;;;;;;;;8.49;nan;103063.56;5042947;28;19937;-83
2023/11/22 10:05:09;;;;;;;;;;;;;;;8.65;nan;103058.09;5040409;28;20388;-84
2023/11/22 10:07:38;;;;;;;;;;;;;;;8.82;nan;103068.66;5040339;28;19921;-83
2023/11/22 10:10:06;;;;;;;;;;;;;;;8.91;nan;103067.56;5041370;28;19917;-84
2023/11/22 10:12:31;;;;;;;;;;;;;;;8.98;nan;103073.88;5038934;28;19921;-83
2023/11/22 10:15:13;;;;;;;;;;;;;;;9.12;nan;103073.03;5040692;28;19919;-84
2023/11/22 10:17:38;;;;;;;;;;;;;;;9.20;nan;103074.84;5040276;28;19983;-84
2023/11/22 10:20:04;;;;;;;;;;;;;;;9.26;nan;103074.09;5039574;28;19928;-84
2023/11/22 10:22:29;;;;;;;;;;;;;;;9.25;nan;103075.09;5038980;28;19944;-84
2023/11/22 10:24:59;;;;;;;;;;;;;;;9.29;nan;103082.56;5038648;28;19940;-84
2023/11/22 10:27:26;;;;;;;;;;;;;;;9.28;nan;103085.44;5039801;28;19921;-84
2023/11/22 10:29:51;;;;;;;;;;;;;;;9.28;nan;103083.59;5036641;28;19920;-85
2023/11/22 10:32:17;;;;;;;;;;;;;;;9.40;nan;103084.00;5042771;28;20301;-84
2023/11/22 10:34:42;;;;;;;;;;;;;;;9.49;nan;103074.00;5042475;28;19931;-85
2023/11/22 10:37:09;;;;;;;;;;;;;;;9.47;nan;103079.53;5041093;28;19925;-84
2023/11/22 10:39:35;;;;;;;;;;;;;;;9.51;nan;103069.31;5038161;28;19928;-84
2023/11/22 10:42:01;;;;;;;;;;;;;;;9.54;nan;103069.78;5038829;28;19916;-85
2023/11/22 10:44:26;;;;;;;;;;;;;;;9.61;nan;103069.88;5037902;28;19921;-85
2023/11/22 10:46:52;;;;;;;;;;;;;;;9.66;nan;103067.47;5039554;28;20708;-83
2023/11/22 10:49:18;;;;;;;;;;;;;;;9.64;nan;103072.16;5043043;28;19959;-84
2023/11/22 10:51:44;;;;;;;;;;;;;;;9.70;nan;103068.78;5041666;28;19968;-84
2023/11/22 10:54:10;;;;;;;;;;;;;;;9.75;nan;103068.22;5037938;28;19999;-85
2023/11/22 10:56:41;;;;;;;;;;;;;;;9.84;nan;103056.38;5040908;28;19921;-85
2023/11/22 10:59:10;;;;;;;;;;;;;;;9.86;nan;103063.19;5039574;28;19927;-85
2023/11/22 11:01:35;;;;;;;;;;;;;;;9.83;nan;103058.22;5035010;28;19925;-85
2023/11/22 11:04:05;;;;;;;;;;;;;;;9.82;nan;103051.19;5041205;28;19990;-84
2023/11/22 11:06:33;;;;;;;;;;;;;;;9.78;nan;103065.97;5039563;28;19929;-85
2023/11/22 11:08:59;;;;;;;;;;;;;;;9.88;nan;103060.34;5035335;28;19936;-85
2023/11/22 11:11:25;;;;;;;;;;;;;;;10.03;nan;103073.69;5041346;28;19921;-85
2023/11/22 11:13:51;;;;;;;;;;;;;;;10.06;nan;103050.06;5037909;28;20534;-85
2023/11/22 11:16:17;;;;;;;;;;;;;;;10.09;nan;103041.66;5037980;28;20376;-84
2023/11/22 11:18:42;;;;;;;;;;;;;;;10.12;nan;103035.91;5041196;28;20407;-85
2023/11/22 11:21:11;;;;;;;;;;;;;;;10.16;nan;103017.59;5038868;28;20066;-85
2023/11/22 11:23:38;;;;;;;;;;;;;;;10.22;nan;103020.38;5034528;28;19971;-84
2023/11/22 11:26:30;;;;;;;;;;;;;;;10.14;nan;103025.84;5031195;28;19972;-85
2023/11/22 11:28:55;;;;;;;;;;;;;;;10.07;nan;103016.06;5032434;28;19971;-84
2023/11/22 11:31:21;;;;;;;;;;;;;;;9.97;nan;103001.13;5033990;28;19952;-85
2023/11/22 11:33:51;;;;;;;;;;;;;;;9.97;nan;103005.66;5031391;28;19931;-85
2023/11/22 11:36:24;;;;;;;;;;;;;;;9.92;nan;103003.56;5033436;28;19921;-85
2023/11/22 11:38:50;;;;;;;;;;;;;;;9.93;nan;102999.84;5032701;28;19917;-85
2023/11/22 11:41:16;;;;;;;;;;;;;;;9.89;nan;103003.09;5034589;28;19991;-85
2023/11/22 11:43:51;;;;;;;;;;;;;;;9.84;nan;102989.44;5036409;28;19948;-85
2023/11/22 11:46:16;;;;;;;;;;;;;;;9.80;nan;102988.97;5040810;28;19925;-84
2023/11/22 11:48:45;;;;;;;;;;;;;;;9.82;nan;102989.63;5040636;28;19916;-84
2023/11/22 11:51:14;;;;;;;;;;;;;;;9.88;nan;102986.22;5036660;28;19925;-85
2023/11/22 11:53:39;;;;;;;;;;;;;;;9.95;nan;102983.59;5040376;28;19920;-85
2023/11/22 11:56:05;;;;;;;;;;;;;;;9.94;nan;102984.63;5037294;28;19925;-85
2023/11/22 11:58:31;;;;;;;;;;;;;;;10.07;nan;102970.53;5043211;28;19917;-85
2023/11/22 12:00:56;;;;;;;;;;;;;;;10.13;nan;102954.53;5039632;28;20351;-85
2023/11/22 12:03:22;;;;;;;;;;;;;;;10.26;nan;102935.94;5041932;28;19944;-84
2023/11/22 12:05:49;;;;;;;;;;;;;;;10.39;nan;102937.06;5040180;28;19923;-86
2023/11/22 12:08:18;;;;;;;;;;;;;;;10.46;nan;102938.78;5039486;28;19940;-85
2023/11/22 12:10:48;;;;;;;;;;;;;;;10.52;nan;102927.28;5038100;28;19924;-85
2023/11/22 12:13:13;;;;;;;;;;;;;;;10.61;nan;102921.78;5038368;28;20003;-85
2023/11/22 12:15:39;;;;;;;;;;;;;;;10.71;nan;102917.72;5041172;28;20332;-85
2023/11/22 12:18:05;;;;;;;;;;;;;;;10.84;nan;102908.94;5037282;28;19927;-85
2023/11/22 12:20:31;;;;;;;;;;;;;;;10.91;nan;102904.44;5038427;28;19920;-86
2023/11/22 12:22:57;;;;;;;;;;;;;;;10.97;nan;102911.72;5037594;28;19972;-85
2023/11/22 12:25:25;;;;;;;;;;;;;;;11.05;nan;102911.53;5041272;28;19972;-86
2023/11/22 12:27:53;;;;;;;;;;;;;;;11.05;nan;102911.53;5035480;28;20328;-85
2023/11/22 12:30:29;;;;;;;;;;;;;;;11.14;nan;102907.69;5038907;28;19959;-85
2023/11/22 12:32:55;;;;;;;;;;;;;;;11.28;nan;102896.97;5036414;28;19976;-85
2023/11/22 12:35:21;;;;;;;;;;;;;;;11.36;nan;102896.81;5039844;28;19917;-85
2023/11/22 12:37:46;;;;;;;;;;;;;;;11.38;nan;102900.13;5038701;28;19939;-85
2023/11/22 12:40:12;;;;;;;;;;;;;;;11.47;nan;102923.06;5039065;28;20333;-85
2023/11/22 12:42:47;;;;;;;;;;;;;;;11.46;nan;102942.88;5039871;28;20340;-85
2023/11/22 12:45:20;;;;;;;;;;;;;;;11.46;nan;102945.56;5036946;28;19920;-85
2023/11/22 12:47:47;;;;;;;;;;;;;;;11.42;nan;102938.94;5029014;28;19924;-85
2023/11/22 12:50:29;;;;;;;;;;;;;;;11.42;nan;102930.91;5037307;28;20373;-85
2023/11/22 12:52:54;;;;;;;;;;;;;;;11.41;nan;102934.63;5021088;28;19921;-85
2023/11/22 12:55:20;;;;;;;;;;;;;;;11.30;nan;102936.00;5037890;28;19963;-85
2023/11/22 12:57:56;;;;;;;;;;;;;;;11.21;nan;102950.63;5036672;28;19927;-85
2023/11/22 13:00:21;;;;;;;;;;;;;;;11.17;nan;102960.94;5041712;28;19981;-85
2023/11/22 13:02:47;;;;;;;;;;;;;;;11.12;nan;102971.41;5037588;28;19960;-85